sensor_id;sensor_type;location;lat;lon;timestamp;P1;durP1;ratioP1;P2;durP2;ratioP2
16673;SDS011;8450;52.654;10.326;2023-02-01T08:19:01;6.70;;;2.90;;
16673;SDS011;8450;52.654;10.326;2023-02-01T08:21:27;3.43;;;2.97;;
16673;SDS011;8450;52.654;10.326;2023-02-01T08:24:02;4.13;;;2.83;;
16673;SDS011;8450;52.654;10.326;2023-02-01T08:26:29;3.97;;;3.03;;
16673;SDS011;8450;52.654;10.326;2023-02-01T08:31:19;3.90;;;2.63;;
16673;SDS011;8450;52.654;10.326;2023-02-01T08:33:56;6.73;;;2.97;;
16673;SDS011;8450;52.654;10.326;2023-02-01T08:36:24;5.73;;;3.10;;
16673;SDS011;8450;52.654;10.326;2023-02-01T08:38:50;5.30;;;3.17;;
16673;SDS011;8450;52.654;10.326;2023-02-01T08:41:18;5.30;;;2.97;;
16673;SDS011;8450;52.654;10.326;2023-02-01T08:43:45;7.97;;;3.13;;
16673;SDS011;8450;52.654;10.326;2023-02-01T08:46:13;7.40;;;3.50;;
16673;SDS011;8450;52.654;10.326;2023-02-01T08:48:38;6.03;;;3.07;;
16673;SDS011;8450;52.654;10.326;2023-02-01T08:51:05;5.33;;;2.73;;
16673;SDS011;8450;52.654;10.326;2023-02-01T08:53:32;6.23;;;3.37;;
16673;SDS011;8450;52.654;10.326;2023-02-01T08:55:58;6.97;;;3.33;;
16673;SDS011;8450;52.654;10.326;2023-02-01T08:58:24;7.00;;;2.97;;
16673;SDS011;8450;52.654;10.326;2023-02-01T09:00:49;9.83;;;3.13;;
16673;SDS011;8450;52.654;10.326;2023-02-01T09:03:16;9.00;;;3.27;;
16673;SDS011;8450;52.654;10.326;2023-02-01T09:05:42;4.83;;;2.70;;
16673;SDS011;8450;52.654;10.326;2023-02-01T09:08:07;12.90;;;3.93;;
16673;SDS011;8450;52.654;10.326;2023-02-01T09:10:33;5.93;;;2.73;;
16673;SDS011;8450;52.654;10.326;2023-02-01T09:12:59;6.53;;;2.93;;
16673;SDS011;8450;52.654;10.326;2023-02-01T09:15:25;4.43;;;2.57;;
16673;SDS011;8450;52.654;10.326;2023-02-01T09:17:51;5.90;;;2.70;;
16673;SDS011;8450;52.654;10.326;2023-02-01T09:20:16;4.50;;;3.03;;
16673;SDS011;8450;52.654;10.326;2023-02-01T09:22:44;8.47;;;3.40;;
16673;SDS011;8450;52.654;10.326;2023-02-01T09:25:09;10.73;;;3.17;;
16673;SDS011;8450;52.654;10.326;2023-02-01T09:27:35;8.33;;;3.20;;
16673;SDS011;8450;52.654;10.326;2023-02-01T09:30:01;5.37;;;2.80;;
16673;SDS011;8450;52.654;10.326;2023-02-01T09:32:27;7.07;;;3.07;;
16673;SDS011;8450;52.654;10.326;2023-02-01T09:34:52;8.57;;;2.90;;
16673;SDS011;8450;52.654;10.326;2023-02-01T09:37:18;8.03;;;2.80;;
16673;SDS011;8450;52.654;10.326;2023-02-01T09:39:44;7.80;;;2.83;;
16673;SDS011;8450;52.654;10.326;2023-02-01T09:47:34;6.23;;;2.60;;
16673;SDS011;8450;52.654;10.326;2023-02-01T09:50:18;6.00;;;3.23;;
16673;SDS011;8450;52.654;10.326;2023-02-01T09:53:00;5.27;;;3.00;;
16673;SDS011;8450;52.654;10.326;2023-02-01T10:00:53;7.50;;;2.20;;
16673;SDS011;8450;52.654;10.326;2023-02-01T10:03:23;8.20;;;3.13;;
16673;SDS011;8450;52.654;10.326;2023-02-01T10:05:56;3.83;;;2.60;;
16673;SDS011;8450;52.654;10.326;2023-02-01T10:08:41;3.87;;;2.23;;
16673;SDS011;8450;52.654;10.326;2023-02-01T10:11:33;7.93;;;3.13;;
16673;SDS011;8450;52.654;10.326;2023-02-01T10:23:06;6.50;;;3.00;;
16673;SDS011;8450;52.654;10.326;2023-02-01T10:28:13;12.43;;;3.00;;
16673;SDS011;8450;52.654;10.326;2023-02-01T10:30:45;9.97;;;3.60;;
16673;SDS011;8450;52.654;10.326;2023-02-01T10:33:14;7.33;;;3.40;;
16673;SDS011;8450;52.654;10.326;2023-02-01T10:35:40;9.07;;;3.10;;
16673;SDS011;8450;52.654;10.326;2023-02-01T10:38:23;7.97;;;3.17;;
16673;SDS011;8450;52.654;10.326;2023-02-01T10:40:52;8.43;;;3.90;;
16673;SDS011;8450;52.654;10.326;2023-02-01T10:43:20;11.97;;;3.67;;
16673;SDS011;8450;52.654;10.326;2023-02-01T10:45:45;9.33;;;3.73;;
16673;SDS011;8450;52.654;10.326;2023-02-01T10:48:11;9.83;;;3.23;;
16673;SDS011;8450;52.654;10.326;2023-02-01T10:50:38;13.20;;;3.33;;
16673;SDS011;8450;52.654;10.326;2023-02-01T10:53:25;8.70;;;3.07;;
16673;SDS011;8450;52.654;10.326;2023-02-01T10:56:08;6.97;;;2.93;;
16673;SDS011;8450;52.654;10.326;2023-02-01T10:58:35;7.80;;;3.27;;
16673;SDS011;8450;52.654;10.326;2023-02-01T11:01:08;10.77;;;3.77;;
16673;SDS011;8450;52.654;10.326;2023-02-01T11:03:36;9.90;;;3.60;;
16673;SDS011;8450;52.654;10.326;2023-02-01T11:08:57;7.30;;;3.03;;
16673;SDS011;8450;52.654;10.326;2023-02-01T11:11:52;11.17;;;3.50;;
16673;SDS011;8450;52.654;10.326;2023-02-01T11:17:01;7.90;;;2.97;;
16673;SDS011;8450;52.654;10.326;2023-02-01T11:19:45;5.23;;;3.50;;
16673;SDS011;8450;52.654;10.326;2023-02-01T11:22:12;11.07;;;3.87;;
16673;SDS011;8450;52.654;10.326;2023-02-01T11:24:39;5.37;;;2.97;;
16673;SDS011;8450;52.654;10.326;2023-02-01T11:27:12;13.30;;;3.70;;
16673;SDS011;8450;52.654;10.326;2023-02-01T11:29:42;6.27;;;3.03;;
16673;SDS011;8450;52.654;10.326;2023-02-01T11:32:10;8.63;;;3.40;;
16673;SDS011;8450;52.654;10.326;2023-02-01T11:34:39;9.53;;;3.50;;
16673;SDS011;8450;52.654;10.326;2023-02-01T11:37:18;6.80;;;3.00;;
16673;SDS011;8450;52.654;10.326;2023-02-01T11:45:46;11.27;;;4.37;;
16673;SDS011;8450;52.654;10.326;2023-02-01T11:48:26;7.63;;;3.60;;
16673;SDS011;8450;52.654;10.326;2023-02-01T11:54:01;8.13;;;3.73;;
16673;SDS011;8450;52.654;10.326;2023-02-01T11:59:32;9.03;;;4.13;;
16673;SDS011;8450;52.654;10.326;2023-02-01T12:04:53;10.50;;;4.40;;
16673;SDS011;8450;52.654;10.326;2023-02-01T12:07:57;10.40;;;4.50;;
16673;SDS011;8450;52.654;10.326;2023-02-01T12:13:10;10.40;;;3.93;;
16673;SDS011;8450;52.654;10.326;2023-02-01T12:25:29;8.43;;;3.33;;
16673;SDS011;8450;52.654;10.326;2023-02-01T12:55:24;4.90;;;3.23;;
16673;SDS011;8450;52.654;10.326;2023-02-01T13:36:20;6.70;;;2.70;;
16673;SDS011;8450;52.654;10.326;2023-02-01T13:42:15;3.73;;;2.50;;
16673;SDS011;8450;52.654;10.326;2023-02-01T13:44:49;3.20;;;2.33;;
16673;SDS011;8450;52.654;10.326;2023-02-01T13:47:20;2.57;;;2.20;;
16673;SDS011;8450;52.654;10.326;2023-02-01T13:49:49;2.80;;;2.00;;
16673;SDS011;8450;52.654;10.326;2023-02-01T13:52:27;2.90;;;2.17;;
16673;SDS011;8450;52.654;10.326;2023-02-01T13:57:39;2.33;;;1.70;;
16673;SDS011;8450;52.654;10.326;2023-02-01T14:02:50;3.50;;;2.20;;
16673;SDS011;8450;52.654;10.326;2023-02-01T14:08:02;2.30;;;2.00;;
16673;SDS011;8450;52.654;10.326;2023-02-01T14:13:52;2.43;;;1.53;;
16673;SDS011;8450;52.654;10.326;2023-02-01T14:16:17;1.93;;;1.73;;
16673;SDS011;8450;52.654;10.326;2023-02-01T14:29:56;3.03;;;1.50;;
16673;SDS011;8450;52.654;10.326;2023-02-01T14:32:34;1.53;;;1.40;;
16673;SDS011;8450;52.654;10.326;2023-02-01T14:35:05;1.93;;;1.73;;
16673;SDS011;8450;52.654;10.326;2023-02-01T14:41:32;1.73;;;1.40;;
16673;SDS011;8450;52.654;10.326;2023-02-01T14:49:30;3.40;;;1.80;;
16673;SDS011;8450;52.654;10.326;2023-02-01T14:51:58;3.17;;;1.50;;
16673;SDS011;8450;52.654;10.326;2023-02-01T14:54:27;2.80;;;1.37;;
16673;SDS011;8450;52.654;10.326;2023-02-01T14:56:53;5.23;;;2.00;;
16673;SDS011;8450;52.654;10.326;2023-02-01T14:59:20;1.57;;;1.40;;
16673;SDS011;8450;52.654;10.326;2023-02-01T15:01:50;4.73;;;1.70;;
16673;SDS011;8450;52.654;10.326;2023-02-01T15:04:18;3.60;;;1.70;;
16673;SDS011;8450;52.654;10.326;2023-02-01T15:06:49;4.70;;;1.50;;
16673;SDS011;8450;52.654;10.326;2023-02-01T15:09:20;3.97;;;1.50;;
16673;SDS011;8450;52.654;10.326;2023-02-01T15:14:43;2.27;;;1.40;;
16673;SDS011;8450;52.654;10.326;2023-02-01T15:19:55;5.20;;;1.90;;
16673;SDS011;8450;52.654;10.326;2023-02-01T15:22:22;4.33;;;1.70;;
16673;SDS011;8450;52.654;10.326;2023-02-01T15:24:52;2.63;;;1.70;;
16673;SDS011;8450;52.654;10.326;2023-02-01T15:27:22;3.77;;;1.60;;
16673;SDS011;8450;52.654;10.326;2023-02-01T15:29:48;3.07;;;1.60;;
